sensor_id;sensor_type;location;lat;lon;timestamp;P1;durP1;ratioP1;P2;durP2;ratioP2
40256;SDS011;25977;45.462;9.210;2024-03-08T00:01:59;21.65;;;10.90;;
40256;SDS011;25977;45.462;9.210;2024-03-08T00:04:25;18.67;;;10.85;;
40256;SDS011;25977;45.462;9.210;2024-03-08T00:06:51;13.15;;;9.43;;
40256;SDS011;25977;45.462;9.210;2024-03-08T00:09:17;14.27;;;10.63;;
40256;SDS011;25977;45.462;9.210;2024-03-08T00:11:42;20.27;;;12.38;;
40256;SDS011;25977;45.462;9.210;2024-03-08T00:14:08;15.73;;;11.13;;
40256;SDS011;25977;45.462;9.210;2024-03-08T00:16:34;13.52;;;10.13;;
40256;SDS011;25977;45.462;9.210;2024-03-08T00:19:00;17.05;;;11.32;;
40256;SDS011;25977;45.462;9.210;2024-03-08T00:21:26;17.05;;;11.02;;
40256;SDS011;25977;45.462;9.210;2024-03-08T00:23:52;15.32;;;11.70;;
40256;SDS011;25977;45.462;9.210;2024-03-08T00:26:20;17.13;;;12.30;;
40256;SDS011;25977;45.462;9.210;2024-03-08T00:28:47;16.95;;;11.57;;
40256;SDS011;25977;45.462;9.210;2024-03-08T00:31:14;19.10;;;12.40;;
40256;SDS011;25977;45.462;9.210;2024-03-08T00:33:42;23.08;;;14.23;;
40256;SDS011;25977;45.462;9.210;2024-03-08T00:36:08;16.98;;;11.82;;
40256;SDS011;25977;45.462;9.210;2024-03-08T00:38:33;19.13;;;12.60;;
40256;SDS011;25977;45.462;9.210;2024-03-08T00:40:59;19.17;;;12.52;;
40256;SDS011;25977;45.462;9.210;2024-03-08T00:43:25;20.08;;;12.95;;
40256;SDS011;25977;45.462;9.210;2024-03-08T00:45:51;18.27;;;11.27;;
40256;SDS011;25977;45.462;9.210;2024-03-08T00:48:17;19.13;;;11.07;;
40256;SDS011;25977;45.462;9.210;2024-03-08T00:50:43;21.10;;;11.82;;
40256;SDS011;25977;45.462;9.210;2024-03-08T00:53:11;16.92;;;11.95;;
40256;SDS011;25977;45.462;9.210;2024-03-08T00:55:37;16.10;;;11.35;;
40256;SDS011;25977;45.462;9.210;2024-03-08T00:58:03;20.02;;;12.15;;
40256;SDS011;25977;45.462;9.210;2024-03-08T01:00:29;16.42;;;11.85;;
40256;SDS011;25977;45.462;9.210;2024-03-08T01:02:55;14.85;;;10.93;;
40256;SDS011;25977;45.462;9.210;2024-03-08T01:05:21;13.63;;;10.02;;
40256;SDS011;25977;45.462;9.210;2024-03-08T01:07:49;18.20;;;11.73;;
40256;SDS011;25977;45.462;9.210;2024-03-08T01:10:15;17.80;;;11.77;;
40256;SDS011;25977;45.462;9.210;2024-03-08T01:12:41;17.83;;;10.35;;
40256;SDS011;25977;45.462;9.210;2024-03-08T01:15:08;16.08;;;11.68;;
40256;SDS011;25977;45.462;9.210;2024-03-08T01:17:35;18.70;;;10.98;;
40256;SDS011;25977;45.462;9.210;2024-03-08T01:20:01;15.25;;;9.90;;
40256;SDS011;25977;45.462;9.210;2024-03-08T01:22:28;15.98;;;9.35;;
40256;SDS011;25977;45.462;9.210;2024-03-08T01:24:55;13.07;;;8.95;;
40256;SDS011;25977;45.462;9.210;2024-03-08T01:27:21;16.52;;;9.95;;
40256;SDS011;25977;45.462;9.210;2024-03-08T01:29:47;18.23;;;10.60;;
40256;SDS011;25977;45.462;9.210;2024-03-08T01:32:13;15.65;;;9.68;;
40256;SDS011;25977;45.462;9.210;2024-03-08T01:34:39;18.20;;;9.68;;
40256;SDS011;25977;45.462;9.210;2024-03-08T01:37:05;16.85;;;9.73;;
40256;SDS011;25977;45.462;9.210;2024-03-08T01:39:31;15.70;;;9.95;;
40256;SDS011;25977;45.462;9.210;2024-03-08T01:41:57;17.65;;;10.82;;
40256;SDS011;25977;45.462;9.210;2024-03-08T01:44:26;16.05;;;10.18;;
40256;SDS011;25977;45.462;9.210;2024-03-08T01:46:52;14.30;;;9.10;;
40256;SDS011;25977;45.462;9.210;2024-03-08T01:49:19;13.85;;;8.88;;
40256;SDS011;25977;45.462;9.210;2024-03-08T01:51:46;18.42;;;10.30;;
40256;SDS011;25977;45.462;9.210;2024-03-08T01:54:14;17.17;;;9.98;;
40256;SDS011;25977;45.462;9.210;2024-03-08T01:56:41;16.60;;;10.13;;
40256;SDS011;25977;45.462;9.210;2024-03-08T01:59:08;15.63;;;9.43;;
40256;SDS011;25977;45.462;9.210;2024-03-08T02:01:34;12.23;;;8.68;;
40256;SDS011;25977;45.462;9.210;2024-03-08T02:04:00;14.45;;;9.52;;
40256;SDS011;25977;45.462;9.210;2024-03-08T02:06:26;13.80;;;10.50;;
40256;SDS011;25977;45.462;9.210;2024-03-08T02:08:51;11.73;;;8.68;;
40256;SDS011;25977;45.462;9.210;2024-03-08T02:11:18;19.90;;;10.20;;
40256;SDS011;25977;45.462;9.210;2024-03-08T02:13:46;13.45;;;9.45;;
40256;SDS011;25977;45.462;9.210;2024-03-08T02:16:12;14.07;;;9.02;;
40256;SDS011;25977;45.462;9.210;2024-03-08T02:18:38;11.52;;;8.88;;
40256;SDS011;25977;45.462;9.210;2024-03-08T02:21:04;14.95;;;9.45;;
40256;SDS011;25977;45.462;9.210;2024-03-08T02:23:31;11.60;;;8.38;;
40256;SDS011;25977;45.462;9.210;2024-03-08T02:25:58;17.08;;;9.75;;
40256;SDS011;25977;45.462;9.210;2024-03-08T02:28:24;15.82;;;8.90;;
40256;SDS011;25977;45.462;9.210;2024-03-08T02:30:50;13.05;;;9.15;;
40256;SDS011;25977;45.462;9.210;2024-03-08T02:33:16;13.32;;;9.45;;
40256;SDS011;25977;45.462;9.210;2024-03-08T02:35:46;12.70;;;9.80;;
40256;SDS011;25977;45.462;9.210;2024-03-08T02:38:13;14.75;;;9.18;;
40256;SDS011;25977;45.462;9.210;2024-03-08T02:40:44;15.68;;;9.85;;
40256;SDS011;25977;45.462;9.210;2024-03-08T02:43:12;18.20;;;9.88;;
40256;SDS011;25977;45.462;9.210;2024-03-08T02:45:39;14.75;;;9.55;;
40256;SDS011;25977;45.462;9.210;2024-03-08T02:48:07;16.35;;;11.02;;
40256;SDS011;25977;45.462;9.210;2024-03-08T02:50:33;14.73;;;10.35;;
40256;SDS011;25977;45.462;9.210;2024-03-08T02:53:00;18.10;;;10.45;;
40256;SDS011;25977;45.462;9.210;2024-03-08T02:55:27;15.43;;;11.00;;
40256;SDS011;25977;45.462;9.210;2024-03-08T02:57:52;17.10;;;11.25;;
40256;SDS011;25977;45.462;9.210;2024-03-08T03:00:20;14.30;;;9.98;;
40256;SDS011;25977;45.462;9.210;2024-03-08T03:02:48;17.10;;;11.18;;
40256;SDS011;25977;45.462;9.210;2024-03-08T03:05:19;20.10;;;11.70;;
40256;SDS011;25977;45.462;9.210;2024-03-08T03:07:45;15.75;;;11.10;;
40256;SDS011;25977;45.462;9.210;2024-03-08T03:10:11;16.33;;;11.20;;
40256;SDS011;25977;45.462;9.210;2024-03-08T03:12:37;18.08;;;10.55;;
40256;SDS011;25977;45.462;9.210;2024-03-08T03:15:03;16.80;;;11.05;;
40256;SDS011;25977;45.462;9.210;2024-03-08T03:17:32;17.85;;;10.00;;
40256;SDS011;25977;45.462;9.210;2024-03-08T03:19:58;16.67;;;10.32;;
40256;SDS011;25977;45.462;9.210;2024-03-08T03:22:23;20.73;;;12.93;;
40256;SDS011;25977;45.462;9.210;2024-03-08T03:24:50;19.55;;;11.65;;
40256;SDS011;25977;45.462;9.210;2024-03-08T03:27:17;21.40;;;11.18;;
40256;SDS011;25977;45.462;9.210;2024-03-08T03:29:43;16.23;;;11.18;;
40256;SDS011;25977;45.462;9.210;2024-03-08T03:32:12;19.58;;;11.18;;
40256;SDS011;25977;45.462;9.210;2024-03-08T03:34:38;17.38;;;11.32;;
40256;SDS011;25977;45.462;9.210;2024-03-08T03:37:05;17.77;;;11.05;;
40256;SDS011;25977;45.462;9.210;2024-03-08T03:39:32;21.38;;;11.68;;
40256;SDS011;25977;45.462;9.210;2024-03-08T03:41:59;17.63;;;11.50;;
40256;SDS011;25977;45.462;9.210;2024-03-08T03:44:27;18.42;;;11.13;;
40256;SDS011;25977;45.462;9.210;2024-03-08T03:46:53;17.45;;;12.07;;
40256;SDS011;25977;45.462;9.210;2024-03-08T03:49:19;14.82;;;9.93;;
40256;SDS011;25977;45.462;9.210;2024-03-08T03:51:45;17.25;;;11.07;;
40256;SDS011;25977;45.462;9.210;2024-03-08T03:54:11;18.20;;;11.70;;
40256;SDS011;25977;45.462;9.210;2024-03-08T03:56:38;17.42;;;11.73;;
40256;SDS011;25977;45.462;9.210;2024-03-08T03:59:05;20.13;;;12.52;;
40256;SDS011;25977;45.462;9.210;2024-03-08T04:01:31;19.85;;;11.80;;
40256;SDS011;25977;45.462;9.210;2024-03-08T04:03:58;17.83;;;11.65;;
40256;SDS011;25977;45.462;9.210;2024-03-08T04:06:24;19.05;;;12.50;;
40256;SDS011;25977;45.462;9.210;2024-03-08T04:08:49;16.88;;;11.05;;
40256;SDS011;25977;45.462;9.210;2024-03-08T04:11:15;19.00;;;12.50;;
40256;SDS011;25977;45.462;9.210;2024-03-08T04:13:42;22.55;;;13.27;;
40256;SDS011;25977;45.462;9.210;2024-03-08T04:16:08;20.42;;;13.20;;
40256;SDS011;25977;45.462;9.210;2024-03-08T04:18:36;19.73;;;11.82;;
40256;SDS011;25977;45.462;9.210;2024-03-08T04:21:03;19.05;;;11.77;;
40256;SDS011;25977;45.462;9.210;2024-03-08T04:23:32;20.42;;;12.15;;
40256;SDS011;25977;45.462;9.210;2024-03-08T04:26:00;25.02;;;12.38;;
40256;SDS011;25977;45.462;9.210;2024-03-08T04:28:28;19.65;;;12.10;;
40256;SDS011;25977;45.462;9.210;2024-03-08T04:30:54;19.00;;;12.25;;
40256;SDS011;25977;45.462;9.210;2024-03-08T04:33:20;19.38;;;11.82;;
40256;SDS011;25977;45.462;9.210;2024-03-08T04:35:46;17.98;;;12.07;;
40256;SDS011;25977;45.462;9.210;2024-03-08T04:38:12;22.48;;;13.55;;
40256;SDS011;25977;45.462;9.210;2024-03-08T04:40:38;22.58;;;12.77;;
40256;SDS011;25977;45.462;9.210;2024-03-08T04:43:04;20.30;;;12.80;;
40256;SDS011;25977;45.462;9.210;2024-03-08T04:45:31;20.67;;;13.18;;
40256;SDS011;25977;45.462;9.210;2024-03-08T04:47:57;18.05;;;11.13;;
40256;SDS011;25977;45.462;9.210;2024-03-08T04:50:23;26.75;;;11.63;;
40256;SDS011;25977;45.462;9.210;2024-03-08T04:52:48;23.15;;;13.05;;
40256;SDS011;25977;45.462;9.210;2024-03-08T04:55:14;15.90;;;11.57;;
40256;SDS011;25977;45.462;9.210;2024-03-08T04:57:40;19.98;;;13.35;;
40256;SDS011;25977;45.462;9.210;2024-03-08T05:00:07;23.13;;;13.20;;
40256;SDS011;25977;45.462;9.210;2024-03-08T05:02:36;18.02;;;12.13;;
40256;SDS011;25977;45.462;9.210;2024-03-08T05:05:07;18.88;;;13.10;;
40256;SDS011;25977;45.462;9.210;2024-03-08T05:07:40;20.75;;;11.85;;
40256;SDS011;25977;45.462;9.210;2024-03-08T05:10:06;17.55;;;12.43;;
40256;SDS011;25977;45.462;9.210;2024-03-08T05:12:32;22.67;;;12.57;;
40256;SDS011;25977;45.462;9.210;2024-03-08T05:14:58;20.50;;;12.35;;
40256;SDS011;25977;45.462;9.210;2024-03-08T05:17:25;19.08;;;12.15;;
40256;SDS011;25977;45.462;9.210;2024-03-08T05:19:51;24.95;;;13.20;;
40256;SDS011;25977;45.462;9.210;2024-03-08T05:22:16;16.38;;;11.75;;
40256;SDS011;25977;45.462;9.210;2024-03-08T05:24:44;22.35;;;12.63;;
40256;SDS011;25977;45.462;9.210;2024-03-08T05:27:09;17.38;;;11.80;;
40256;SDS011;25977;45.462;9.210;2024-03-08T05:29:36;22.75;;;11.68;;
40256;SDS011;25977;45.462;9.210;2024-03-08T05:32:02;15.93;;;10.98;;
40256;SDS011;25977;45.462;9.210;2024-03-08T05:34:29;14.95;;;10.52;;
40256;SDS011;25977;45.462;9.210;2024-03-08T05:36:55;18.20;;;11.02;;
40256;SDS011;25977;45.462;9.210;2024-03-08T05:39:21;19.02;;;9.57;;
40256;SDS011;25977;45.462;9.210;2024-03-08T05:41:47;18.17;;;10.85;;
40256;SDS011;25977;45.462;9.210;2024-03-08T05:44:13;14.65;;;10.50;;
40256;SDS011;25977;45.462;9.210;2024-03-08T05:46:39;15.07;;;9.70;;
40256;SDS011;25977;45.462;9.210;2024-03-08T05:49:05;13.75;;;10.57;;
40256;SDS011;25977;45.462;9.210;2024-03-08T05:51:35;20.48;;;9.45;;
40256;SDS011;25977;45.462;9.210;2024-03-08T05:54:02;18.35;;;9.63;;
40256;SDS011;25977;45.462;9.210;2024-03-08T05:56:30;15.43;;;9.38;;
40256;SDS011;25977;45.462;9.210;2024-03-08T05:58:56;14.52;;;9.45;;
40256;SDS011;25977;45.462;9.210;2024-03-08T06:01:25;14.10;;;10.18;;
40256;SDS011;25977;45.462;9.210;2024-03-08T06:03:55;16.88;;;9.93;;
40256;SDS011;25977;45.462;9.210;2024-03-08T06:06:25;14.70;;;9.82;;
40256;SDS011;25977;45.462;9.210;2024-03-08T06:08:51;13.63;;;10.07;;
40256;SDS011;25977;45.462;9.210;2024-03-08T06:11:18;15.48;;;10.15;;
40256;SDS011;25977;45.462;9.210;2024-03-08T06:13:45;15.13;;;9.13;;
40256;SDS011;25977;45.462;9.210;2024-03-08T06:16:11;17.25;;;10.23;;
40256;SDS011;25977;45.462;9.210;2024-03-08T06:18:37;12.13;;;8.13;;
40256;SDS011;25977;45.462;9.210;2024-03-08T06:21:04;13.95;;;9.10;;
40256;SDS011;25977;45.462;9.210;2024-03-08T06:23:33;16.30;;;9.35;;
40256;SDS011;25977;45.462;9.210;2024-03-08T06:26:03;15.07;;;8.85;;
40256;SDS011;25977;45.462;9.210;2024-03-08T06:28:32;15.02;;;8.32;;
40256;SDS011;25977;45.462;9.210;2024-03-08T06:31:03;14.27;;;9.00;;
40256;SDS011;25977;45.462;9.210;2024-03-08T06:33:30;12.77;;;8.77;;
40256;SDS011;25977;45.462;9.210;2024-03-08T06:35:57;11.48;;;8.82;;
40256;SDS011;25977;45.462;9.210;2024-03-08T06:38:26;12.65;;;9.40;;
40256;SDS011;25977;45.462;9.210;2024-03-08T06:40:52;14.25;;;9.75;;
40256;SDS011;25977;45.462;9.210;2024-03-08T06:43:19;9.88;;;7.80;;
40256;SDS011;25977;45.462;9.210;2024-03-08T06:45:45;15.32;;;9.13;;
40256;SDS011;25977;45.462;9.210;2024-03-08T06:48:14;13.55;;;8.48;;
40256;SDS011;25977;45.462;9.210;2024-03-08T06:50:42;12.75;;;8.90;;
40256;SDS011;25977;45.462;9.210;2024-03-08T06:53:09;12.05;;;7.57;;
40256;SDS011;25977;45.462;9.210;2024-03-08T06:55:34;11.93;;;7.97;;
40256;SDS011;25977;45.462;9.210;2024-03-08T06:58:00;9.93;;;8.20;;
40256;SDS011;25977;45.462;9.210;2024-03-08T07:00:26;12.38;;;7.80;;
40256;SDS011;25977;45.462;9.210;2024-03-08T07:02:54;13.38;;;8.40;;
40256;SDS011;25977;45.462;9.210;2024-03-08T07:05:19;13.40;;;8.77;;
40256;SDS011;25977;45.462;9.210;2024-03-08T07:07:45;11.82;;;7.93;;
40256;SDS011;25977;45.462;9.210;2024-03-08T07:10:13;12.43;;;8.05;;
40256;SDS011;25977;45.462;9.210;2024-03-08T07:12:41;12.95;;;8.15;;
40256;SDS011;25977;45.462;9.210;2024-03-08T07:15:07;13.50;;;7.60;;
40256;SDS011;25977;45.462;9.210;2024-03-08T07:17:38;12.18;;;8.75;;
40256;SDS011;25977;45.462;9.210;2024-03-08T07:20:05;9.75;;;7.68;;
40256;SDS011;25977;45.462;9.210;2024-03-08T07:22:36;8.30;;;6.75;;
40256;SDS011;25977;45.462;9.210;2024-03-08T07:25:02;10.05;;;8.30;;
40256;SDS011;25977;45.462;9.210;2024-03-08T07:27:46;13.13;;;8.20;;
40256;SDS011;25977;45.462;9.210;2024-03-08T07:30:20;12.23;;;8.13;;
40256;SDS011;25977;45.462;9.210;2024-03-08T07:33:06;14.13;;;8.68;;
40256;SDS011;25977;45.462;9.210;2024-03-08T07:35:32;11.25;;;8.43;;
40256;SDS011;25977;45.462;9.210;2024-03-08T07:38:07;10.68;;;7.72;;
40256;SDS011;25977;45.462;9.210;2024-03-08T07:40:37;12.13;;;7.55;;
40256;SDS011;25977;45.462;9.210;2024-03-08T07:43:10;11.50;;;8.05;;
40256;SDS011;25977;45.462;9.210;2024-03-08T07:45:37;11.68;;;7.93;;
40256;SDS011;25977;45.462;9.210;2024-03-08T07:48:03;15.45;;;8.13;;
40256;SDS011;25977;45.462;9.210;2024-03-08T07:50:36;12.02;;;7.55;;
40256;SDS011;25977;45.462;9.210;2024-03-08T07:53:06;13.48;;;7.32;;
40256;SDS011;25977;45.462;9.210;2024-03-08T07:55:33;9.82;;;7.53;;
40256;SDS011;25977;45.462;9.210;2024-03-08T07:58:02;10.57;;;7.95;;
40256;SDS011;25977;45.462;9.210;2024-03-08T08:00:29;13.35;;;7.40;;
40256;SDS011;25977;45.462;9.210;2024-03-08T08:02:56;9.52;;;7.10;;
40256;SDS011;25977;45.462;9.210;2024-03-08T08:05:22;9.15;;;7.18;;
40256;SDS011;25977;45.462;9.210;2024-03-08T08:07:47;11.38;;;6.95;;
40256;SDS011;25977;45.462;9.210;2024-03-08T08:10:15;12.45;;;7.93;;
40256;SDS011;25977;45.462;9.210;2024-03-08T08:12:49;10.05;;;7.63;;
40256;SDS011;25977;45.462;9.210;2024-03-08T08:15:16;9.63;;;7.53;;
40256;SDS011;25977;45.462;9.210;2024-03-08T08:17:43;12.43;;;8.23;;
40256;SDS011;25977;45.462;9.210;2024-03-08T08:20:10;14.27;;;7.72;;
40256;SDS011;25977;45.462;9.210;2024-03-08T08:22:37;14.23;;;7.85;;
40256;SDS011;25977;45.462;9.210;2024-03-08T08:25:08;12.55;;;7.97;;
40256;SDS011;25977;45.462;9.210;2024-03-08T08:27:37;9.73;;;7.45;;
40256;SDS011;25977;45.462;9.210;2024-03-08T08:30:04;9.60;;;7.40;;
40256;SDS011;25977;45.462;9.210;2024-03-08T08:32:36;11.13;;;7.50;;
40256;SDS011;25977;45.462;9.210;2024-03-08T08:35:02;10.45;;;7.05;;
40256;SDS011;25977;45.462;9.210;2024-03-08T08:37:31;32.80;;;8.50;;
40256;SDS011;25977;45.462;9.210;2024-03-08T08:39:57;12.10;;;7.43;;
40256;SDS011;25977;45.462;9.210;2024-03-08T08:42:23;11.27;;;7.75;;
40256;SDS011;25977;45.462;9.210;2024-03-08T08:44:49;16.35;;;6.43;;
40256;SDS011;25977;45.462;9.210;2024-03-08T08:47:17;10.48;;;7.00;;
40256;SDS011;25977;45.462;9.210;2024-03-08T08:49:46;11.65;;;8.35;;
40256;SDS011;25977;45.462;9.210;2024-03-08T08:52:12;8.65;;;7.03;;
40256;SDS011;25977;45.462;9.210;2024-03-08T08:54:38;13.48;;;7.00;;
40256;SDS011;25977;45.462;9.210;2024-03-08T08:57:04;11.02;;;6.70;;
40256;SDS011;25977;45.462;9.210;2024-03-08T08:59:33;9.77;;;7.50;;
40256;SDS011;25977;45.462;9.210;2024-03-08T09:02:01;7.97;;;6.57;;
40256;SDS011;25977;45.462;9.210;2024-03-08T09:04:34;13.43;;;8.15;;
40256;SDS011;25977;45.462;9.210;2024-03-08T09:07:00;10.50;;;7.45;;
40256;SDS011;25977;45.462;9.210;2024-03-08T09:09:26;12.77;;;7.88;;
40256;SDS011;25977;45.462;9.210;2024-03-08T09:11:52;13.80;;;7.60;;
40256;SDS011;25977;45.462;9.210;2024-03-08T09:14:19;9.60;;;7.45;;
40256;SDS011;25977;45.462;9.210;2024-03-08T09:16:45;10.75;;;7.90;;
40256;SDS011;25977;45.462;9.210;2024-03-08T09:19:12;14.02;;;8.98;;
40256;SDS011;25977;45.462;9.210;2024-03-08T09:21:38;9.77;;;6.88;;
40256;SDS011;25977;45.462;9.210;2024-03-08T09:24:06;10.90;;;6.80;;
40256;SDS011;25977;45.462;9.210;2024-03-08T09:26:32;8.27;;;6.82;;
40256;SDS011;25977;45.462;9.210;2024-03-08T09:28:58;15.57;;;8.88;;
40256;SDS011;25977;45.462;9.210;2024-03-08T09:31:24;10.75;;;7.82;;
40256;SDS011;25977;45.462;9.210;2024-03-08T09:33:51;10.00;;;7.40;;
40256;SDS011;25977;45.462;9.210;2024-03-08T09:36:17;13.52;;;7.35;;
40256;SDS011;25977;45.462;9.210;2024-03-08T09:38:43;17.70;;;7.20;;
40256;SDS011;25977;45.462;9.210;2024-03-08T09:41:09;14.82;;;8.43;;
40256;SDS011;25977;45.462;9.210;2024-03-08T09:43:37;13.75;;;8.20;;
40256;SDS011;25977;45.462;9.210;2024-03-08T09:46:03;11.50;;;8.38;;
40256;SDS011;25977;45.462;9.210;2024-03-08T09:48:31;12.95;;;8.40;;
40256;SDS011;25977;45.462;9.210;2024-03-08T09:50:57;10.43;;;7.13;;
40256;SDS011;25977;45.462;9.210;2024-03-08T09:53:23;11.45;;;8.73;;
40256;SDS011;25977;45.462;9.210;2024-03-08T09:55:49;11.88;;;7.30;;
40256;SDS011;25977;45.462;9.210;2024-03-08T09:58:15;15.38;;;7.63;;
40256;SDS011;25977;45.462;9.210;2024-03-08T10:00:47;12.80;;;8.30;;
40256;SDS011;25977;45.462;9.210;2024-03-08T10:03:13;11.70;;;7.45;;
40256;SDS011;25977;45.462;9.210;2024-03-08T10:05:42;12.25;;;7.72;;
40256;SDS011;25977;45.462;9.210;2024-03-08T10:08:09;11.45;;;7.38;;
40256;SDS011;25977;45.462;9.210;2024-03-08T10:10:36;14.68;;;9.48;;
40256;SDS011;25977;45.462;9.210;2024-03-08T10:13:05;14.75;;;8.60;;
40256;SDS011;25977;45.462;9.210;2024-03-08T10:15:32;10.18;;;7.80;;
40256;SDS011;25977;45.462;9.210;2024-03-08T10:18:00;9.98;;;7.25;;
40256;SDS011;25977;45.462;9.210;2024-03-08T10:20:32;10.63;;;7.93;;
40256;SDS011;25977;45.462;9.210;2024-03-08T10:23:01;13.25;;;8.95;;
40256;SDS011;25977;45.462;9.210;2024-03-08T10:25:32;12.35;;;8.85;;
40256;SDS011;25977;45.462;9.210;2024-03-08T10:27:58;14.35;;;8.48;;
40256;SDS011;25977;45.462;9.210;2024-03-08T10:30:24;15.32;;;9.40;;
40256;SDS011;25977;45.462;9.210;2024-03-08T10:32:49;12.45;;;8.95;;
40256;SDS011;25977;45.462;9.210;2024-03-08T10:35:16;9.48;;;8.20;;
40256;SDS011;25977;45.462;9.210;2024-03-08T10:37:46;15.48;;;9.88;;
40256;SDS011;25977;45.462;9.210;2024-03-08T10:40:17;10.48;;;8.32;;
40256;SDS011;25977;45.462;9.210;2024-03-08T10:42:47;9.93;;;8.13;;
40256;SDS011;25977;45.462;9.210;2024-03-08T10:45:36;15.00;;;9.35;;
40256;SDS011;25977;45.462;9.210;2024-03-08T10:50:42;15.52;;;7.40;;
40256;SDS011;25977;45.462;9.210;2024-03-08T10:53:11;12.60;;;9.30;;
40256;SDS011;25977;45.462;9.210;2024-03-08T10:55:39;19.90;;;9.48;;
40256;SDS011;25977;45.462;9.210;2024-03-08T10:58:08;11.27;;;8.13;;
40256;SDS011;25977;45.462;9.210;2024-03-08T11:00:34;10.68;;;8.10;;
40256;SDS011;25977;45.462;9.210;2024-03-08T11:03:02;9.40;;;7.40;;
40256;SDS011;25977;45.462;9.210;2024-03-08T11:08:24;11.60;;;8.05;;
40256;SDS011;25977;45.462;9.210;2024-03-08T11:10:53;9.35;;;7.60;;
40256;SDS011;25977;45.462;9.210;2024-03-08T11:13:37;10.93;;;7.90;;
40256;SDS011;25977;45.462;9.210;2024-03-08T11:16:12;14.07;;;7.65;;
40256;SDS011;25977;45.462;9.210;2024-03-08T11:18:53;8.63;;;7.20;;
40256;SDS011;25977;45.462;9.210;2024-03-08T11:21:19;9.35;;;7.80;;
40256;SDS011;25977;45.462;9.210;2024-03-08T11:24:01;9.05;;;7.15;;
40256;SDS011;25977;45.462;9.210;2024-03-08T11:26:30;9.67;;;7.40;;
40256;SDS011;25977;45.462;9.210;2024-03-08T11:34:53;7.32;;;6.30;;
40256;SDS011;25977;45.462;9.210;2024-03-08T11:37:19;8.32;;;6.55;;
40256;SDS011;25977;45.462;9.210;2024-03-08T11:39:47;8.68;;;6.53;;
40256;SDS011;25977;45.462;9.210;2024-03-08T11:42:17;7.45;;;6.00;;
40256;SDS011;25977;45.462;9.210;2024-03-08T11:44:47;8.20;;;7.40;;
40256;SDS011;25977;45.462;9.210;2024-03-08T11:47:13;8.65;;;7.05;;
40256;SDS011;25977;45.462;9.210;2024-03-08T11:49:40;8.40;;;6.55;;
40256;SDS011;25977;45.462;9.210;2024-03-08T11:52:14;9.70;;;6.25;;
40256;SDS011;25977;45.462;9.210;2024-03-08T11:54:41;11.27;;;7.05;;
40256;SDS011;25977;45.462;9.210;2024-03-08T11:57:08;7.45;;;6.70;;
40256;SDS011;25977;45.462;9.210;2024-03-08T11:59:35;9.68;;;6.72;;
40256;SDS011;25977;45.462;9.210;2024-03-08T12:02:02;10.55;;;6.90;;
40256;SDS011;25977;45.462;9.210;2024-03-08T12:04:29;9.05;;;7.70;;
40256;SDS011;25977;45.462;9.210;2024-03-08T12:06:56;10.63;;;7.13;;
40256;SDS011;25977;45.462;9.210;2024-03-08T12:09:27;8.60;;;6.70;;
40256;SDS011;25977;45.462;9.210;2024-03-08T12:11:53;8.30;;;7.07;;
40256;SDS011;25977;45.462;9.210;2024-03-08T12:14:18;12.75;;;7.18;;
40256;SDS011;25977;45.462;9.210;2024-03-08T12:16:46;7.75;;;6.65;;
40256;SDS011;25977;45.462;9.210;2024-03-08T12:19:13;8.55;;;7.35;;
40256;SDS011;25977;45.462;9.210;2024-03-08T12:21:39;8.05;;;6.68;;
40256;SDS011;25977;45.462;9.210;2024-03-08T12:24:14;14.02;;;7.07;;
40256;SDS011;25977;45.462;9.210;2024-03-08T12:26:46;8.38;;;7.05;;
40256;SDS011;25977;45.462;9.210;2024-03-08T12:29:18;9.93;;;7.35;;
40256;SDS011;25977;45.462;9.210;2024-03-08T12:31:47;9.75;;;7.15;;
40256;SDS011;25977;45.462;9.210;2024-03-08T12:34:21;7.95;;;6.60;;
40256;SDS011;25977;45.462;9.210;2024-03-08T12:36:47;11.00;;;6.40;;
40256;SDS011;25977;45.462;9.210;2024-03-08T12:39:17;8.98;;;6.47;;
40256;SDS011;25977;45.462;9.210;2024-03-08T12:41:47;9.20;;;6.57;;
40256;SDS011;25977;45.462;9.210;2024-03-08T12:44:19;10.02;;;6.85;;
40256;SDS011;25977;45.462;9.210;2024-03-08T12:46:48;8.77;;;6.53;;
40256;SDS011;25977;45.462;9.210;2024-03-08T12:49:14;10.07;;;8.02;;
40256;SDS011;25977;45.462;9.210;2024-03-08T12:51:44;8.55;;;6.55;;
40256;SDS011;25977;45.462;9.210;2024-03-08T12:54:10;10.23;;;7.80;;
40256;SDS011;25977;45.462;9.210;2024-03-08T12:56:36;9.73;;;6.88;;
40256;SDS011;25977;45.462;9.210;2024-03-08T12:59:05;7.78;;;6.40;;
40256;SDS011;25977;45.462;9.210;2024-03-08T13:01:35;9.07;;;7.00;;
40256;SDS011;25977;45.462;9.210;2024-03-08T13:04:02;9.48;;;6.18;;
40256;SDS011;25977;45.462;9.210;2024-03-08T13:06:31;8.85;;;6.22;;
40256;SDS011;25977;45.462;9.210;2024-03-08T13:08:58;11.65;;;7.05;;
40256;SDS011;25977;45.462;9.210;2024-03-08T13:11:24;7.97;;;7.18;;
40256;SDS011;25977;45.462;9.210;2024-03-08T13:13:50;10.05;;;7.53;;
40256;SDS011;25977;45.462;9.210;2024-03-08T13:16:17;8.35;;;7.28;;
40256;SDS011;25977;45.462;9.210;2024-03-08T13:18:44;9.20;;;6.70;;
40256;SDS011;25977;45.462;9.210;2024-03-08T13:21:14;11.25;;;7.30;;
40256;SDS011;25977;45.462;9.210;2024-03-08T13:23:43;10.07;;;6.90;;
40256;SDS011;25977;45.462;9.210;2024-03-08T13:26:14;9.68;;;7.43;;
40256;SDS011;25977;45.462;9.210;2024-03-08T13:28:42;7.68;;;6.65;;
40256;SDS011;25977;45.462;9.210;2024-03-08T13:31:08;8.57;;;6.80;;
40256;SDS011;25977;45.462;9.210;2024-03-08T13:33:37;9.80;;;7.72;;
40256;SDS011;25977;45.462;9.210;2024-03-08T13:36:05;13.77;;;7.75;;
40256;SDS011;25977;45.462;9.210;2024-03-08T13:38:34;11.30;;;7.53;;
40256;SDS011;25977;45.462;9.210;2024-03-08T13:41:01;9.23;;;6.63;;
40256;SDS011;25977;45.462;9.210;2024-03-08T13:43:28;14.13;;;7.05;;
40256;SDS011;25977;45.462;9.210;2024-03-08T13:45:54;9.25;;;7.57;;
40256;SDS011;25977;45.462;9.210;2024-03-08T13:48:20;12.57;;;7.63;;
40256;SDS011;25977;45.462;9.210;2024-03-08T13:50:47;10.57;;;8.07;;
40256;SDS011;25977;45.462;9.210;2024-03-08T13:53:14;8.57;;;7.20;;
40256;SDS011;25977;45.462;9.210;2024-03-08T13:55:41;7.45;;;6.70;;
40256;SDS011;25977;45.462;9.210;2024-03-08T13:58:06;9.35;;;6.13;;
40256;SDS011;25977;45.462;9.210;2024-03-08T14:00:35;8.18;;;6.38;;
40256;SDS011;25977;45.462;9.210;2024-03-08T14:03:01;8.43;;;6.03;;
40256;SDS011;25977;45.462;9.210;2024-03-08T14:05:35;15.27;;;6.60;;
40256;SDS011;25977;45.462;9.210;2024-03-08T14:08:05;10.70;;;6.32;;
40256;SDS011;25977;45.462;9.210;2024-03-08T14:10:35;7.95;;;6.55;;
40256;SDS011;25977;45.462;9.210;2024-03-08T14:13:02;7.25;;;6.18;;
40256;SDS011;25977;45.462;9.210;2024-03-08T14:15:32;7.90;;;6.22;;
40256;SDS011;25977;45.462;9.210;2024-03-08T14:18:06;6.78;;;6.07;;
40256;SDS011;25977;45.462;9.210;2024-03-08T14:20:32;10.05;;;6.30;;
40256;SDS011;25977;45.462;9.210;2024-03-08T14:22:58;11.32;;;7.15;;
40256;SDS011;25977;45.462;9.210;2024-03-08T14:25:23;10.88;;;7.18;;
40256;SDS011;25977;45.462;9.210;2024-03-08T14:27:50;9.13;;;7.13;;
40256;SDS011;25977;45.462;9.210;2024-03-08T14:30:23;11.05;;;6.53;;
40256;SDS011;25977;45.462;9.210;2024-03-08T14:33:04;10.25;;;6.43;;
40256;SDS011;25977;45.462;9.210;2024-03-08T14:35:37;9.13;;;6.15;;
40256;SDS011;25977;45.462;9.210;2024-03-08T14:38:03;9.73;;;6.75;;
40256;SDS011;25977;45.462;9.210;2024-03-08T14:40:29;9.63;;;7.47;;
40256;SDS011;25977;45.462;9.210;2024-03-08T14:42:56;7.45;;;6.43;;
40256;SDS011;25977;45.462;9.210;2024-03-08T14:45:22;9.70;;;6.72;;
40256;SDS011;25977;45.462;9.210;2024-03-08T14:47:49;8.95;;;6.95;;